createdAt,value
2017-07-01T00:00:07.363Z,63.80
2017-07-01T00:02:33.929Z,63.80
2017-07-01T00:05:01.164Z,63.90
2017-07-01T00:07:27.737Z,63.60
2017-07-01T00:09:54.237Z,63.80
2017-07-01T00:12:20.789Z,64.50
2017-07-01T00:14:48.058Z,63.80
2017-07-01T00:17:14.570Z,63.80
2017-07-01T00:19:41.851Z,65.50
2017-07-01T00:22:08.344Z,65.60
2017-07-01T00:24:34.886Z,66.70
2017-07-01T00:27:01.415Z,67.00
2017-07-01T00:29:28.677Z,68.70
2017-07-01T00:31:55.995Z,68.20
2017-07-01T00:34:22.495Z,68.20
2017-07-01T00:36:49.088Z,68.90
2017-07-01T00:39:16.344Z,69.70
2017-07-01T00:41:43.611Z,69.80
2017-07-01T00:44:10.216Z,69.80
2017-07-01T00:46:36.769Z,70.00
2017-07-01T00:49:04.043Z,71.20
2017-07-01T00:51:30.558Z,71.10
2017-07-01T00:53:57.110Z,70.80
2017-07-01T00:56:23.577Z,70.80
2017-07-01T00:58:50.107Z,71.00
2017-07-01T01:01:16.737Z,70.60
2017-07-01T01:03:43.309Z,70.60
2017-07-01T01:06:10.658Z,71.00
2017-07-01T01:08:37.203Z,70.90
2017-07-01T01:11:04.548Z,70.60
2017-07-01T01:13:31.980Z,70.60
2017-07-01T01:15:58.569Z,70.50
2017-07-01T01:18:25.136Z,71.40
2017-07-01T01:20:51.719Z,70.80
2017-07-01T01:23:18.264Z,72.00
2017-07-01T01:25:45.026Z,71.70
2017-07-01T01:28:11.584Z,71.40
2017-07-01T01:30:38.087Z,71.40
2017-07-01T01:33:04.690Z,71.40
2017-07-01T01:35:32.015Z,71.20
2017-07-01T01:37:58.825Z,71.20
2017-07-01T01:40:25.356Z,71.80
2017-07-01T01:42:51.925Z,72.10
2017-07-01T01:45:18.520Z,71.70
2017-07-01T01:47:45.071Z,71.60
2017-07-01T01:50:11.701Z,71.50
2017-07-01T01:52:38.238Z,71.70
2017-07-01T01:55:04.767Z,71.50
2017-07-01T01:57:31.385Z,71.60
2017-07-01T01:59:57.928Z,72.10
2017-07-01T02:02:24.513Z,71.70
2017-07-01T02:04:51.091Z,72.10
2017-07-01T02:07:17.653Z,72.10
2017-07-01T02:09:44.221Z,72.30
2017-07-01T02:12:30.158Z,71.40
2017-07-01T02:15:04.878Z,71.40
2017-07-01T02:17:55.943Z,71.40
2017-07-01T02:20:53.123Z,71.30
2017-07-01T02:23:19.709Z,71.30
2017-07-01T02:26:11.606Z,71.40
2017-07-01T02:28:38.184Z,71.60
2017-07-01T02:31:04.677Z,71.00
2017-07-01T02:33:31.270Z,70.90
2017-07-01T02:36:20.414Z,71.10
2017-07-01T02:38:46.981Z,71.00
2017-07-01T02:41:13.522Z,71.00
2017-07-01T02:43:40.145Z,70.70
2017-07-01T02:46:18.511Z,70.10
2017-07-01T02:49:00.537Z,70.30
2017-07-01T02:51:36.853Z,69.50
2017-07-01T02:54:03.485Z,69.50
2017-07-01T02:56:43.807Z,68.80
2017-07-01T02:59:14.837Z,68.60
2017-07-01T03:01:42.179Z,68.60
2017-07-01T03:04:08.731Z,68.00
2017-07-01T03:06:35.383Z,68.10
2017-07-01T03:09:01.944Z,69.30
2017-07-01T03:11:28.548Z,67.50
2017-07-01T03:13:55.137Z,67.80
2017-07-01T03:16:21.971Z,68.10
2017-07-01T03:18:48.507Z,67.20
2017-07-01T03:21:15.118Z,67.20
2017-07-01T03:23:41.721Z,67.50
2017-07-01T03:26:09.373Z,66.40
2017-07-01T03:28:35.927Z,67.30
2017-07-01T03:31:02.464Z,67.30
2017-07-01T03:33:33.826Z,66.80
2017-07-01T03:36:00.393Z,66.40
2017-07-01T03:38:45.303Z,67.20
2017-07-01T03:41:42.682Z,66.40
2017-07-01T03:44:25.946Z,66.10
2017-07-01T03:46:52.519Z,66.30
2017-07-01T03:49:40.846Z,67.10
2017-07-01T03:52:08.152Z,66.80
2017-07-01T03:54:36.427Z,66.80
2017-07-01T03:57:03.199Z,66.40
2017-07-01T03:59:30.491Z,66.70
2017-07-01T04:01:57.025Z,66.60
2017-07-01T04:04:23.605Z,66.90
2017-07-01T04:06:50.152Z,66.30
2017-07-01T04:09:17.676Z,66.50
2017-07-01T04:11:45.107Z,66.50
2017-07-01T04:14:11.643Z,66.50
2017-07-01T04:16:38.241Z,67.00
2017-07-01T04:19:07.477Z,66.40
2017-07-01T04:21:34.212Z,67.10
2017-07-01T04:24:00.750Z,66.10
2017-07-01T04:26:27.282Z,65.80
2017-07-01T04:28:53.876Z,66.20
2017-07-01T04:31:21.153Z,66.20
2017-07-01T04:33:47.741Z,66.20
2017-07-01T04:36:14.327Z,66.80
2017-07-01T04:38:59.032Z,66.50
2017-07-01T04:41:27.605Z,66.10
2017-07-01T04:44:08.082Z,66.50
2017-07-01T04:46:34.607Z,66.00
2017-07-01T04:49:04.902Z,65.80
2017-07-01T04:51:43.463Z,65.80
2017-07-01T04:54:21.633Z,67.10
2017-07-01T04:57:20.889Z,67.10
2017-07-01T04:59:52.325Z,65.90
2017-07-01T05:02:19.636Z,66.60
2017-07-01T05:04:47.728Z,66.60
2017-07-01T05:07:44.555Z,65.90
2017-07-01T05:10:34.744Z,65.90
2017-07-01T05:13:01.582Z,65.80
2017-07-01T05:15:43.973Z,66.00
2017-07-01T05:18:10.555Z,65.80
2017-07-01T05:20:39.612Z,64.80
2017-07-01T05:23:29.263Z,64.80
2017-07-01T05:26:07.779Z,64.90
2017-07-01T05:28:48.762Z,64.90
2017-07-01T05:31:31.213Z,65.10
2017-07-01T05:34:33.993Z,65.40
2017-07-01T05:37:01.342Z,64.10
2017-07-01T05:39:29.830Z,64.10
2017-07-01T05:42:16.772Z,65.80
2017-07-01T05:44:50.151Z,65.70
2017-07-01T05:47:16.711Z,65.50
2017-07-01T05:49:43.248Z,64.60
2017-07-01T05:52:09.835Z,64.80
2017-07-01T05:54:37.160Z,66.60
2017-07-01T05:57:03.980Z,65.90
2017-07-01T05:59:38.399Z,65.90
2017-07-01T06:02:19.835Z,67.70
2017-07-01T06:04:47.149Z,66.50
2017-07-01T06:07:13.697Z,66.50
2017-07-01T06:10:08.261Z,64.60
2017-07-01T06:13:09.242Z,64.60
2017-07-01T06:16:00.165Z,65.70
2017-07-01T06:18:41.823Z,65.20
2017-07-01T06:21:37.059Z,65.10
2017-07-01T06:24:10.011Z,64.40
2017-07-01T06:26:49.027Z,64.40
2017-07-01T06:29:52.574Z,64.30
2017-07-01T06:33:03.911Z,63.90
2017-07-01T06:35:30.945Z,63.60
2017-07-01T06:38:31.115Z,63.40
2017-07-01T06:41:34.856Z,63.50
2017-07-01T06:44:06.294Z,63.40
2017-07-01T06:47:07.445Z,61.40
2017-07-01T06:49:40.914Z,60.00
2017-07-01T06:52:23.780Z,58.90
2017-07-01T06:54:50.603Z,58.90
2017-07-01T06:57:17.154Z,58.00
2017-07-01T06:59:43.687Z,56.80
2017-07-01T07:02:10.224Z,56.20
2017-07-01T07:04:36.865Z,55.80
2017-07-01T07:07:03.470Z,54.70
2017-07-01T07:09:29.997Z,54.30
2017-07-01T07:11:56.603Z,54.00
2017-07-01T07:14:23.915Z,54.10
2017-07-01T07:16:50.533Z,54.00
2017-07-01T07:19:17.146Z,53.00
2017-07-01T07:21:43.721Z,53.80
2017-07-01T07:24:10.289Z,52.90
2017-07-01T07:26:37.635Z,52.50
2017-07-01T07:29:12.807Z,52.50
2017-07-01T07:31:39.383Z,51.30
2017-07-01T07:34:05.925Z,51.80
2017-07-01T07:36:32.500Z,50.40
2017-07-01T07:38:59.082Z,50.70
2017-07-01T07:41:25.697Z,51.30
2017-07-01T07:43:52.185Z,49.20
2017-07-01T07:46:19.409Z,48.60
2017-07-01T07:48:45.956Z,48.70
2017-07-01T07:51:12.409Z,47.60
2017-07-01T07:53:39.653Z,48.60
2017-07-01T07:56:06.900Z,47.80
2017-07-01T07:58:34.129Z,48.00
2017-07-01T08:01:00.643Z,48.00
2017-07-01T08:03:27.137Z,48.00
2017-07-01T08:05:53.665Z,47.90
2017-07-01T08:08:20.892Z,47.10
2017-07-01T08:10:47.358Z,47.00
2017-07-01T08:13:13.882Z,45.80
2017-07-01T08:15:40.394Z,46.50
2017-07-01T08:18:07.705Z,46.90
2017-07-01T08:20:34.218Z,46.40
2017-07-01T08:23:00.680Z,47.60
2017-07-01T08:25:27.226Z,46.40
2017-07-01T08:27:53.686Z,47.40
2017-07-01T08:30:20.216Z,47.10
2017-07-01T08:32:46.711Z,47.90
2017-07-01T08:35:20.279Z,47.90
2017-07-01T08:37:46.790Z,46.80
2017-07-01T08:40:13.972Z,44.90
2017-07-01T08:42:40.474Z,44.90
2017-07-01T08:45:07.685Z,43.00
2017-07-01T08:47:34.217Z,43.00
2017-07-01T08:50:00.705Z,43.20
2017-07-01T08:52:27.197Z,43.10
2017-07-01T08:54:53.689Z,42.20
2017-07-01T08:57:20.222Z,42.00
2017-07-01T08:59:46.739Z,41.40
2017-07-01T09:02:13.267Z,41.20
2017-07-01T09:04:39.899Z,41.00
2017-07-01T09:07:06.385Z,40.70
2017-07-01T09:09:32.865Z,37.90
2017-07-01T09:11:59.412Z,38.90
2017-07-01T09:14:25.865Z,39.30
2017-07-01T09:16:52.363Z,39.40
2017-07-01T09:19:18.908Z,39.50
2017-07-01T09:21:45.396Z,38.10
2017-07-01T09:24:11.940Z,36.80
2017-07-01T09:26:39.195Z,36.70
2017-07-01T09:29:06.392Z,37.40
2017-07-01T09:31:32.938Z,37.30
2017-07-01T09:33:59.388Z,36.90
2017-07-01T09:36:25.838Z,36.90
2017-07-01T09:38:53.080Z,38.20
2017-07-01T09:41:19.572Z,38.10
2017-07-01T09:43:46.093Z,38.00
2017-07-01T09:46:12.594Z,37.60
2017-07-01T09:48:39.267Z,36.80
2017-07-01T09:51:05.753Z,39.80
2017-07-01T09:53:32.970Z,37.20
2017-07-01T09:55:59.687Z,37.00
2017-07-01T09:58:26.174Z,37.30
2017-07-01T10:00:53.406Z,39.30
2017-07-01T10:03:19.939Z,39.30
2017-07-01T10:05:46.412Z,41.10
2017-07-01T10:08:12.922Z,42.70
2017-07-01T10:10:40.128Z,41.60
2017-07-01T10:13:06.612Z,41.70
2017-07-01T10:15:33.301Z,41.50
2017-07-01T10:17:59.847Z,40.90
2017-07-01T10:20:26.420Z,38.70
2017-07-01T10:22:53.669Z,39.70
2017-07-01T10:25:20.913Z,40.50
2017-07-01T10:27:48.203Z,39.70
2017-07-01T10:30:14.701Z,39.70
2017-07-01T10:32:41.973Z,38.90
2017-07-01T10:35:08.492Z,38.80
2017-07-01T10:37:36.002Z,37.20
2017-07-01T10:40:02.577Z,37.20
2017-07-01T10:42:29.076Z,37.40
2017-07-01T10:44:55.623Z,37.10
2017-07-01T10:47:22.119Z,38.40
2017-07-01T10:49:48.615Z,41.10
2017-07-01T10:52:15.870Z,40.10
2017-07-01T10:54:42.335Z,40.00
2017-07-01T10:57:08.869Z,39.40
2017-07-01T10:59:35.358Z,39.00
2017-07-01T11:02:02.626Z,40.70
2017-07-01T11:04:29.103Z,40.60
2017-07-01T11:06:55.576Z,41.00
2017-07-01T11:09:22.861Z,42.10
2017-07-01T11:11:49.358Z,42.00
2017-07-01T11:14:15.848Z,43.60
2017-07-01T11:16:42.374Z,43.40
2017-07-01T11:19:08.879Z,42.90
2017-07-01T11:21:35.397Z,45.00
2017-07-01T11:24:01.913Z,42.90
2017-07-01T11:26:29.139Z,42.40
2017-07-01T11:28:55.618Z,42.30
2017-07-01T11:31:22.139Z,45.00
2017-07-01T11:33:49.384Z,43.70
2017-07-01T11:36:16.606Z,43.00
2017-07-01T11:38:43.126Z,42.80
2017-07-01T11:41:09.638Z,44.40
2017-07-01T11:43:36.245Z,45.10
2017-07-01T11:46:02.738Z,45.30
2017-07-01T11:48:29.236Z,44.00
2017-07-01T11:50:55.982Z,42.90
2017-07-01T11:53:22.445Z,43.00
2017-07-01T11:55:48.935Z,42.10
2017-07-01T11:58:15.454Z,43.10
2017-07-01T12:00:41.929Z,43.60
2017-07-01T12:03:08.420Z,42.80
2017-07-01T12:05:34.943Z,43.60
2017-07-01T12:08:02.219Z,43.80
2017-07-01T12:10:28.709Z,43.80
2017-07-01T12:12:55.935Z,43.30
2017-07-01T12:15:22.455Z,42.90
2017-07-01T12:17:49.735Z,42.90
2017-07-01T12:20:16.361Z,43.80
2017-07-01T12:22:42.880Z,42.90
2017-07-01T12:25:09.365Z,43.70
2017-07-01T12:27:35.928Z,42.40
2017-07-01T12:30:02.384Z,42.40
2017-07-01T12:32:28.894Z,42.50
2017-07-01T12:34:55.356Z,43.20
2017-07-01T12:37:21.860Z,44.10
2017-07-01T12:39:48.344Z,44.00
2017-07-01T12:42:15.577Z,43.60
2017-07-01T12:44:42.109Z,43.00
2017-07-01T12:47:08.579Z,43.90
2017-07-01T12:49:35.051Z,43.40
2017-07-01T12:52:01.589Z,41.90
2017-07-01T12:54:28.067Z,43.50
2017-07-01T12:56:55.344Z,43.50
2017-07-01T12:59:21.853Z,43.50
2017-07-01T13:01:48.362Z,44.10
2017-07-01T13:04:14.843Z,43.50
2017-07-01T13:06:41.359Z,43.30
2017-07-01T13:09:07.903Z,43.70
2017-07-01T13:11:34.382Z,43.20
2017-07-01T13:14:00.870Z,44.00
2017-07-01T13:16:27.391Z,45.40
2017-07-01T13:18:53.891Z,45.20
2017-07-01T13:21:20.499Z,44.70
2017-07-01T13:23:47.022Z,44.90
2017-07-01T13:26:13.546Z,44.80
2017-07-01T13:28:40.010Z,44.90
2017-07-01T13:31:06.476Z,45.10
2017-07-01T13:33:33.001Z,45.40
2017-07-01T13:35:59.453Z,45.90
2017-07-01T13:38:25.929Z,45.20
2017-07-01T13:40:52.424Z,44.10
2017-07-01T13:43:18.895Z,45.90
2017-07-01T13:45:45.427Z,45.40
2017-07-01T13:48:11.888Z,44.60
2017-07-01T13:50:38.432Z,43.90
2017-07-01T13:53:04.912Z,44.30
2017-07-01T13:55:31.422Z,45.50
2017-07-01T13:57:58.055Z,45.30
2017-07-01T14:00:24.551Z,44.40
2017-07-01T14:02:51.012Z,44.80
2017-07-01T14:05:18.260Z,44.60
2017-07-01T14:07:45.468Z,43.70
2017-07-01T14:10:11.977Z,43.60
2017-07-01T14:12:38.471Z,43.30
2017-07-01T14:15:05.733Z,44.10
2017-07-01T14:17:32.220Z,44.10
2017-07-01T14:19:58.715Z,44.60
2017-07-01T14:22:25.473Z,45.00
2017-07-01T14:24:51.958Z,44.70
2017-07-01T14:27:19.197Z,45.50
2017-07-01T14:29:46.442Z,45.40
2017-07-01T14:32:12.897Z,45.40
2017-07-01T14:34:39.433Z,44.00
2017-07-01T14:37:05.901Z,43.90
2017-07-01T14:39:32.439Z,42.90
2017-07-01T14:41:58.904Z,43.40
2017-07-01T14:44:25.400Z,44.00
2017-07-01T14:46:52.064Z,43.70
2017-07-01T14:49:18.558Z,43.60
2017-07-01T14:51:45.036Z,45.00
2017-07-01T14:54:11.536Z,45.00
2017-07-01T14:56:38.022Z,45.60
2017-07-01T14:59:05.268Z,44.90
2017-07-01T15:01:32.490Z,43.50
2017-07-01T15:03:58.927Z,43.40
2017-07-01T15:06:25.455Z,43.20
2017-07-01T15:08:51.953Z,43.80
2017-07-01T15:11:18.446Z,43.80
2017-07-01T15:13:45.712Z,45.00
2017-07-01T15:16:12.202Z,44.30
2017-07-01T15:18:38.673Z,45.10
2017-07-01T15:21:05.927Z,45.50
2017-07-01T15:23:32.518Z,45.50
2017-07-01T15:25:58.989Z,44.30
2017-07-01T15:28:26.223Z,43.80
2017-07-01T15:30:53.475Z,44.50
2017-07-01T15:33:20.703Z,43.90
2017-07-01T15:35:47.226Z,43.80
2017-07-01T15:38:13.696Z,42.40
2017-07-01T15:40:40.154Z,42.60
2017-07-01T15:43:06.659Z,43.30
2017-07-01T15:45:33.877Z,43.50
2017-07-01T15:48:00.368Z,43.40
2017-07-01T15:50:27.134Z,43.50
2017-07-01T15:52:53.657Z,44.50
2017-07-01T15:55:20.125Z,45.50
2017-07-01T15:57:46.750Z,44.90
2017-07-01T16:00:13.325Z,44.50
2017-07-01T16:02:40.544Z,45.50
2017-07-01T16:05:07.072Z,45.50
2017-07-01T16:07:33.533Z,45.20
2017-07-01T16:10:00.867Z,45.10
2017-07-01T16:12:27.357Z,45.10
2017-07-01T16:14:53.935Z,45.00
2017-07-01T16:17:20.384Z,45.80
2017-07-01T16:19:46.929Z,45.80
2017-07-01T16:22:13.416Z,46.10
2017-07-01T16:24:39.918Z,45.70
2017-07-01T16:27:06.466Z,47.10
2017-07-01T16:29:32.940Z,47.60
2017-07-01T16:31:59.453Z,47.70
2017-07-01T16:34:25.963Z,47.50
2017-07-01T16:36:52.469Z,47.20
2017-07-01T16:39:18.982Z,47.70
2017-07-01T16:41:46.198Z,47.80
2017-07-01T16:44:12.748Z,47.80
2017-07-01T16:46:39.265Z,47.80
2017-07-01T16:49:05.750Z,47.50
2017-07-01T16:51:32.274Z,47.50
2017-07-01T16:53:58.770Z,47.80
2017-07-01T16:56:25.221Z,47.30
2017-07-01T16:58:52.521Z,49.50
2017-07-01T17:01:18.989Z,49.50
2017-07-01T17:03:45.496Z,48.80
2017-07-01T17:06:12.001Z,48.00
2017-07-01T17:08:38.487Z,47.70
2017-07-01T17:11:04.962Z,47.10
2017-07-01T17:13:31.481Z,47.80
2017-07-01T17:15:58.697Z,47.40
2017-07-01T17:18:25.234Z,47.40
2017-07-01T17:20:51.740Z,47.80
2017-07-01T17:23:18.255Z,47.00
2017-07-01T17:25:44.938Z,47.30
2017-07-01T17:28:11.406Z,47.40
2017-07-01T17:30:37.957Z,47.20
2017-07-01T17:33:04.467Z,47.60
2017-07-01T17:35:31.681Z,48.30
2017-07-01T17:37:58.202Z,48.30
2017-07-01T17:40:24.677Z,49.00
2017-07-01T17:42:52.038Z,49.30
2017-07-01T17:45:18.553Z,49.30
2017-07-01T17:47:45.762Z,49.30
2017-07-01T17:50:12.318Z,49.10
2017-07-01T17:52:38.814Z,50.50
2017-07-01T17:55:05.329Z,49.50
2017-07-01T17:57:31.844Z,49.50
2017-07-01T17:59:59.051Z,49.50
2017-07-01T18:02:25.568Z,49.40
2017-07-01T18:04:52.045Z,49.00
2017-07-01T18:07:19.375Z,49.70
2017-07-01T18:09:45.859Z,49.30
2017-07-01T18:12:12.344Z,49.00
2017-07-01T18:14:38.847Z,49.50
2017-07-01T18:17:05.322Z,49.80
2017-07-01T18:19:31.801Z,49.90
2017-07-01T18:21:58.302Z,49.80
2017-07-01T18:24:25.540Z,51.20
2017-07-01T18:26:52.069Z,51.20
2017-07-01T18:29:18.566Z,51.30
2017-07-01T18:31:45.184Z,50.70
2017-07-01T18:34:11.693Z,51.10
2017-07-01T18:36:38.158Z,52.50
2017-07-01T18:39:04.670Z,52.00
2017-07-01T18:41:31.136Z,52.60
2017-07-01T18:43:57.661Z,52.60
2017-07-01T18:46:24.143Z,52.80
2017-07-01T18:48:50.712Z,52.70
2017-07-01T18:51:17.205Z,53.00
2017-07-01T18:53:43.666Z,53.10
2017-07-01T18:56:10.214Z,53.30
2017-07-01T18:58:36.673Z,53.40
2017-07-01T19:01:03.414Z,53.70
2017-07-01T19:03:29.943Z,53.50
2017-07-01T19:05:57.261Z,53.90
2017-07-01T19:08:24.596Z,54.80
2017-07-01T19:10:51.073Z,54.70
2017-07-01T19:13:17.582Z,54.30
2017-07-01T19:15:44.090Z,54.10
2017-07-01T19:18:11.357Z,54.30
2017-07-01T19:20:37.988Z,54.30
2017-07-01T19:23:05.204Z,54.90
2017-07-01T19:25:31.677Z,54.90
2017-07-01T19:27:58.439Z,54.60
2017-07-01T19:30:24.891Z,54.80
2017-07-01T19:32:51.350Z,55.40
2017-07-01T19:35:17.850Z,54.90
2017-07-01T19:37:44.318Z,55.30
2017-07-01T19:40:10.810Z,55.10
2017-07-01T19:42:37.345Z,55.10
2017-07-01T19:45:03.894Z,55.50
2017-07-01T19:47:30.364Z,55.90
2017-07-01T19:49:57.567Z,55.70
2017-07-01T19:52:24.090Z,55.70
2017-07-01T19:54:50.546Z,55.60
2017-07-01T19:57:17.107Z,55.60
2017-07-01T19:59:43.663Z,55.40
2017-07-01T20:02:10.223Z,55.30
2017-07-01T20:04:36.746Z,55.70
2017-07-01T20:07:03.237Z,55.90
2017-07-01T20:09:29.802Z,56.00
2017-07-01T20:11:56.356Z,55.60
2017-07-01T20:14:22.874Z,56.10
2017-07-01T20:16:49.535Z,55.20
2017-07-01T20:19:16.031Z,55.50
2017-07-01T20:21:42.525Z,55.00
2017-07-01T20:24:09.085Z,55.30
2017-07-01T20:26:35.583Z,55.90
2017-07-01T20:29:02.193Z,55.70
2017-07-01T20:31:28.654Z,56.60
2017-07-01T20:33:55.133Z,57.40
2017-07-01T20:36:21.723Z,57.30
2017-07-01T20:38:48.202Z,58.30
2017-07-01T20:41:14.743Z,59.70
2017-07-01T20:43:41.226Z,60.60
2017-07-01T20:46:07.690Z,61.80
2017-07-01T20:48:34.210Z,61.60
2017-07-01T20:51:01.421Z,62.70
2017-07-01T20:53:27.952Z,62.70
2017-07-01T20:55:54.460Z,62.40
2017-07-01T20:58:20.959Z,62.50
2017-07-01T21:00:48.241Z,62.90
2017-07-01T21:03:14.708Z,62.80
2017-07-01T21:05:41.247Z,62.70
2017-07-01T21:08:07.745Z,62.80
2017-07-01T21:10:34.253Z,62.90
2017-07-01T21:13:00.784Z,63.00
2017-07-01T21:15:27.256Z,62.60
2017-07-01T21:17:53.824Z,62.20
2017-07-01T21:20:20.343Z,61.50
2017-07-01T21:22:46.858Z,61.50
2017-07-01T21:25:13.382Z,61.50
2017-07-01T21:27:46.787Z,61.10
2017-07-01T21:30:13.366Z,61.50
2017-07-01T21:32:40.554Z,61.50
2017-07-01T21:35:07.044Z,61.50
2017-07-01T21:37:34.306Z,61.80
2017-07-01T21:40:01.545Z,61.30
2017-07-01T21:42:28.966Z,62.70
2017-07-01T21:44:55.429Z,62.10
2017-07-01T21:47:21.875Z,61.40
2017-07-01T21:49:48.390Z,62.00
2017-07-01T21:52:14.856Z,61.70
2017-07-01T21:54:41.441Z,61.70
2017-07-01T21:57:07.925Z,62.00
2017-07-01T21:59:34.431Z,61.90
2017-07-01T22:02:01.725Z,62.00
2017-07-01T22:04:28.231Z,61.90
2017-07-01T22:06:54.724Z,62.30
2017-07-01T22:09:21.191Z,62.00
2017-07-01T22:11:48.392Z,62.40
2017-07-01T22:14:14.915Z,62.40
2017-07-01T22:16:41.403Z,62.30
2017-07-01T22:19:07.929Z,62.30
2017-07-01T22:21:35.147Z,62.40
2017-07-01T22:24:01.690Z,62.30
2017-07-01T22:26:28.169Z,62.60
2017-07-01T22:28:54.680Z,62.30
2017-07-01T22:31:21.929Z,62.40
2017-07-01T22:33:49.155Z,62.80
2017-07-01T22:36:15.668Z,62.70
2017-07-01T22:38:42.349Z,62.80
2017-07-01T22:41:09.593Z,62.90
2017-07-01T22:43:36.115Z,62.90
2017-07-01T22:46:02.598Z,63.00
2017-07-01T22:48:29.138Z,63.10
2017-07-01T22:50:55.620Z,62.70
2017-07-01T22:53:22.310Z,62.90
2017-07-01T22:55:48.798Z,63.30
2017-07-01T22:58:16.020Z,63.30
2017-07-01T23:00:42.530Z,63.30
2017-07-01T23:03:08.989Z,63.00
2017-07-01T23:05:35.702Z,63.50
2017-07-01T23:08:02.195Z,62.90
2017-07-01T23:10:29.424Z,63.10
2017-07-01T23:12:55.923Z,63.20
2017-07-01T23:15:22.420Z,63.10
2017-07-01T23:17:48.956Z,63.40
2017-07-01T23:20:15.464Z,63.00
2017-07-01T23:22:42.927Z,63.00
2017-07-01T23:25:10.141Z,63.20
2017-07-01T23:27:36.631Z,63.10
2017-07-01T23:30:03.413Z,62.90
2017-07-01T23:32:29.868Z,63.20
2017-07-01T23:34:57.089Z,63.50
2017-07-01T23:37:23.591Z,62.60
2017-07-01T23:39:50.098Z,62.70
2017-07-01T23:42:17.494Z,62.50
2017-07-01T23:44:43.973Z,62.50
2017-07-01T23:47:11.193Z,62.10
2017-07-01T23:49:37.991Z,62.50
2017-07-01T23:52:04.484Z,62.10
2017-07-01T23:54:30.991Z,62.90
2017-07-01T23:56:57.492Z,62.70
2017-07-01T23:59:23.981Z,62.80
